sensor_id;sensor_type;location;lat;lon;timestamp;temperature;humidity
21171;DHT22;10743;52.160;20.910;2022-12-16T00:01:24;16.30;28.30
21171;DHT22;10743;52.160;20.910;2022-12-16T00:03:53;16.40;28.30
21171;DHT22;10743;52.160;20.910;2022-12-16T00:06:24;16.40;28.30
21171;DHT22;10743;52.160;20.910;2022-12-16T00:08:52;16.40;28.20
21171;DHT22;10743;52.160;20.910;2022-12-16T00:11:20;16.40;28.30
21171;DHT22;10743;52.160;20.910;2022-12-16T00:13:47;16.40;28.20
21171;DHT22;10743;52.160;20.910;2022-12-16T00:16:16;16.40;28.30
21171;DHT22;10743;52.160;20.910;2022-12-16T00:18:46;16.40;28.20
21171;DHT22;10743;52.160;20.910;2022-12-16T00:21:13;16.40;28.30
21171;DHT22;10743;52.160;20.910;2022-12-16T00:23:40;16.40;28.30
21171;DHT22;10743;52.160;20.910;2022-12-16T00:26:08;16.40;28.30
21171;DHT22;10743;52.160;20.910;2022-12-16T00:28:37;16.40;28.50
21171;DHT22;10743;52.160;20.910;2022-12-16T00:31:05;16.40;28.50
21171;DHT22;10743;52.160;20.910;2022-12-16T00:33:32;16.40;28.40
21171;DHT22;10743;52.160;20.910;2022-12-16T00:36:00;16.40;28.50
21171;DHT22;10743;52.160;20.910;2022-12-16T00:38:27;16.40;28.60
21171;DHT22;10743;52.160;20.910;2022-12-16T00:40:54;16.40;28.60
21171;DHT22;10743;52.160;20.910;2022-12-16T00:43:21;16.40;28.60
21171;DHT22;10743;52.160;20.910;2022-12-16T00:45:48;16.40;28.50
21171;DHT22;10743;52.160;20.910;2022-12-16T00:48:17;16.50;28.50
21171;DHT22;10743;52.160;20.910;2022-12-16T00:50:54;16.50;28.50
21171;DHT22;10743;52.160;20.910;2022-12-16T00:53:22;16.50;28.50
21171;DHT22;10743;52.160;20.910;2022-12-16T00:55:51;16.50;28.40
21171;DHT22;10743;52.160;20.910;2022-12-16T00:58:26;16.50;28.40
21171;DHT22;10743;52.160;20.910;2022-12-16T01:00:53;16.60;28.30
21171;DHT22;10743;52.160;20.910;2022-12-16T01:03:20;16.60;28.40
21171;DHT22;10743;52.160;20.910;2022-12-16T01:05:48;16.60;28.40
21171;DHT22;10743;52.160;20.910;2022-12-16T01:08:16;16.70;28.30
21171;DHT22;10743;52.160;20.910;2022-12-16T01:10:51;16.70;28.30
21171;DHT22;10743;52.160;20.910;2022-12-16T01:13:22;16.70;28.30
21171;DHT22;10743;52.160;20.910;2022-12-16T01:15:50;16.70;28.30
21171;DHT22;10743;52.160;20.910;2022-12-16T01:18:17;16.80;28.30
21171;DHT22;10743;52.160;20.910;2022-12-16T01:20:45;16.80;28.80
21171;DHT22;10743;52.160;20.910;2022-12-16T01:23:12;16.80;28.20
21171;DHT22;10743;52.160;20.910;2022-12-16T01:25:38;16.80;28.10
21171;DHT22;10743;52.160;20.910;2022-12-16T01:28:05;16.90;28.00
21171;DHT22;10743;52.160;20.910;2022-12-16T01:30:34;16.80;27.90
21171;DHT22;10743;52.160;20.910;2022-12-16T01:33:01;16.90;28.10
21171;DHT22;10743;52.160;20.910;2022-12-16T01:35:28;16.90;28.10
21171;DHT22;10743;52.160;20.910;2022-12-16T01:38:15;16.90;28.00
21171;DHT22;10743;52.160;20.910;2022-12-16T01:40:42;16.90;28.00
21171;DHT22;10743;52.160;20.910;2022-12-16T01:43:13;16.90;28.00
21171;DHT22;10743;52.160;20.910;2022-12-16T01:45:48;16.90;27.90
21171;DHT22;10743;52.160;20.910;2022-12-16T01:51:41;17.00;27.90
21171;DHT22;10743;52.160;20.910;2022-12-16T01:54:23;17.00;27.90
21171;DHT22;10743;52.160;20.910;2022-12-16T01:56:55;17.00;28.00
21171;DHT22;10743;52.160;20.910;2022-12-16T01:59:24;17.00;27.90
21171;DHT22;10743;52.160;20.910;2022-12-16T02:01:55;17.00;27.90
21171;DHT22;10743;52.160;20.910;2022-12-16T02:04:23;17.00;28.00
21171;DHT22;10743;52.160;20.910;2022-12-16T02:06:50;17.00;27.80
21171;DHT22;10743;52.160;20.910;2022-12-16T02:09:24;17.00;28.00
21171;DHT22;10743;52.160;20.910;2022-12-16T02:17:38;17.00;27.80
21171;DHT22;10743;52.160;20.910;2022-12-16T02:35:14;17.00;27.90
21171;DHT22;10743;52.160;20.910;2022-12-16T02:40:37;17.00;27.80
21171;DHT22;10743;52.160;20.910;2022-12-16T02:43:18;17.00;27.80
21171;DHT22;10743;52.160;20.910;2022-12-16T02:45:53;17.00;27.80
21171;DHT22;10743;52.160;20.910;2022-12-16T02:48:21;16.90;27.80
21171;DHT22;10743;52.160;20.910;2022-12-16T02:50:50;16.90;27.90
21171;DHT22;10743;52.160;20.910;2022-12-16T02:53:18;16.90;27.90
21171;DHT22;10743;52.160;20.910;2022-12-16T03:02:11;16.80;27.80
21171;DHT22;10743;52.160;20.910;2022-12-16T03:07:17;16.90;28.00
21171;DHT22;10743;52.160;20.910;2022-12-16T03:09:46;16.90;27.90
21171;DHT22;10743;52.160;20.910;2022-12-16T03:12:15;16.90;27.90
21171;DHT22;10743;52.160;20.910;2022-12-16T03:14:47;16.90;27.90
21171;DHT22;10743;52.160;20.910;2022-12-16T03:17:18;16.90;27.90
21171;DHT22;10743;52.160;20.910;2022-12-16T03:19:55;16.90;27.80
21171;DHT22;10743;52.160;20.910;2022-12-16T03:22:28;16.90;27.90
21171;DHT22;10743;52.160;20.910;2022-12-16T03:24:59;16.90;27.90
21171;DHT22;10743;52.160;20.910;2022-12-16T03:30:34;16.90;27.80
21171;DHT22;10743;52.160;20.910;2022-12-16T03:33:21;16.90;27.90
21171;DHT22;10743;52.160;20.910;2022-12-16T03:36:04;16.90;27.90
21171;DHT22;10743;52.160;20.910;2022-12-16T03:38:34;16.90;27.90
21171;DHT22;10743;52.160;20.910;2022-12-16T03:41:03;16.90;27.90
21171;DHT22;10743;52.160;20.910;2022-12-16T03:43:30;16.90;27.80
21171;DHT22;10743;52.160;20.910;2022-12-16T03:46:01;17.00;27.80
21171;DHT22;10743;52.160;20.910;2022-12-16T03:48:30;17.00;27.90
21171;DHT22;10743;52.160;20.910;2022-12-16T03:50:59;17.00;27.90
21171;DHT22;10743;52.160;20.910;2022-12-16T03:53:26;17.00;27.80
21171;DHT22;10743;52.160;20.910;2022-12-16T03:55:53;16.90;27.70
21171;DHT22;10743;52.160;20.910;2022-12-16T03:58:20;17.00;27.80
21171;DHT22;10743;52.160;20.910;2022-12-16T04:00:48;17.00;27.70
21171;DHT22;10743;52.160;20.910;2022-12-16T04:03:15;16.90;27.70
21171;DHT22;10743;52.160;20.910;2022-12-16T04:05:44;16.90;27.80
21171;DHT22;10743;52.160;20.910;2022-12-16T04:08:11;16.80;27.90
21171;DHT22;10743;52.160;20.910;2022-12-16T04:10:38;16.80;27.90
21171;DHT22;10743;52.160;20.910;2022-12-16T04:13:24;16.80;27.90
21171;DHT22;10743;52.160;20.910;2022-12-16T04:16:13;16.80;27.90
21171;DHT22;10743;52.160;20.910;2022-12-16T04:19:00;16.80;28.10
21171;DHT22;10743;52.160;20.910;2022-12-16T04:21:46;16.80;28.10
21171;DHT22;10743;52.160;20.910;2022-12-16T04:24:32;16.80;28.00
21171;DHT22;10743;52.160;20.910;2022-12-16T04:26:59;16.80;28.00
21171;DHT22;10743;52.160;20.910;2022-12-16T04:29:45;16.80;27.90
21171;DHT22;10743;52.160;20.910;2022-12-16T04:32:30;16.80;27.80
21171;DHT22;10743;52.160;20.910;2022-12-16T04:35:18;16.90;27.90
21171;DHT22;10743;52.160;20.910;2022-12-16T04:38:03;16.90;27.80
21171;DHT22;10743;52.160;20.910;2022-12-16T04:40:49;16.90;27.90
21171;DHT22;10743;52.160;20.910;2022-12-16T04:43:34;16.90;28.30
21171;DHT22;10743;52.160;20.910;2022-12-16T04:46:20;16.90;27.80
21171;DHT22;10743;52.160;20.910;2022-12-16T04:49:05;16.90;27.90
21171;DHT22;10743;52.160;20.910;2022-12-16T04:51:51;16.90;27.80
21171;DHT22;10743;52.160;20.910;2022-12-16T04:54:37;16.90;27.80
21171;DHT22;10743;52.160;20.910;2022-12-16T04:57:24;16.90;27.90
21171;DHT22;10743;52.160;20.910;2022-12-16T05:00:10;16.90;27.70
21171;DHT22;10743;52.160;20.910;2022-12-16T05:02:57;16.90;27.90
21171;DHT22;10743;52.160;20.910;2022-12-16T05:05:42;16.90;27.80
21171;DHT22;10743;52.160;20.910;2022-12-16T05:08:28;16.90;27.70
21171;DHT22;10743;52.160;20.910;2022-12-16T05:11:13;16.90;27.80
21171;DHT22;10743;52.160;20.910;2022-12-16T05:13:59;16.90;27.90
21171;DHT22;10743;52.160;20.910;2022-12-16T05:16:44;16.90;28.00
21171;DHT22;10743;52.160;20.910;2022-12-16T05:19:29;16.90;28.00
21171;DHT22;10743;52.160;20.910;2022-12-16T05:22:15;16.90;27.90
21171;DHT22;10743;52.160;20.910;2022-12-16T05:25:01;16.90;28.10
21171;DHT22;10743;52.160;20.910;2022-12-16T05:27:52;16.90;28.00
21171;DHT22;10743;52.160;20.910;2022-12-16T05:30:38;16.90;28.00
21171;DHT22;10743;52.160;20.910;2022-12-16T05:33:24;16.90;28.00
21171;DHT22;10743;52.160;20.910;2022-12-16T05:36:10;16.90;28.10
21171;DHT22;10743;52.160;20.910;2022-12-16T05:38:55;16.90;28.10
21171;DHT22;10743;52.160;20.910;2022-12-16T05:41:41;16.90;28.10
21171;DHT22;10743;52.160;20.910;2022-12-16T05:44:26;17.00;28.10
21171;DHT22;10743;52.160;20.910;2022-12-16T05:47:12;17.00;28.10
21171;DHT22;10743;52.160;20.910;2022-12-16T05:49:57;17.00;28.00
21171;DHT22;10743;52.160;20.910;2022-12-16T05:52:54;17.00;28.10
21171;DHT22;10743;52.160;20.910;2022-12-16T05:55:41;17.00;28.10
21171;DHT22;10743;52.160;20.910;2022-12-16T05:58:27;17.10;28.60
21171;DHT22;10743;52.160;20.910;2022-12-16T06:01:13;17.10;28.00
21171;DHT22;10743;52.160;20.910;2022-12-16T06:03:59;17.10;28.10
21171;DHT22;10743;52.160;20.910;2022-12-16T06:06:45;17.00;28.00
21171;DHT22;10743;52.160;20.910;2022-12-16T06:09:31;17.00;28.10
21171;DHT22;10743;52.160;20.910;2022-12-16T06:12:22;17.00;28.00
21171;DHT22;10743;52.160;20.910;2022-12-16T06:15:09;17.00;27.90
21171;DHT22;10743;52.160;20.910;2022-12-16T06:17:54;17.10;28.00
21171;DHT22;10743;52.160;20.910;2022-12-16T06:20:40;17.00;28.00
21171;DHT22;10743;52.160;20.910;2022-12-16T06:23:25;17.00;28.00
21171;DHT22;10743;52.160;20.910;2022-12-16T06:26:11;17.00;28.00
21171;DHT22;10743;52.160;20.910;2022-12-16T06:28:57;17.00;28.00
21171;DHT22;10743;52.160;20.910;2022-12-16T06:31:42;17.00;28.10
21171;DHT22;10743;52.160;20.910;2022-12-16T06:34:28;16.90;28.10
21171;DHT22;10743;52.160;20.910;2022-12-16T06:37:13;16.90;28.20
21171;DHT22;10743;52.160;20.910;2022-12-16T06:39:58;16.90;28.20
21171;DHT22;10743;52.160;20.910;2022-12-16T06:42:44;16.90;28.20
21171;DHT22;10743;52.160;20.910;2022-12-16T06:45:29;17.00;28.30
21171;DHT22;10743;52.160;20.910;2022-12-16T06:48:14;16.90;28.20
21171;DHT22;10743;52.160;20.910;2022-12-16T06:51:00;16.90;28.20
21171;DHT22;10743;52.160;20.910;2022-12-16T06:53:45;16.90;28.10
21171;DHT22;10743;52.160;20.910;2022-12-16T06:56:30;16.90;28.20
21171;DHT22;10743;52.160;20.910;2022-12-16T06:59:16;16.90;28.30
21171;DHT22;10743;52.160;20.910;2022-12-16T07:02:01;17.00;28.40
21171;DHT22;10743;52.160;20.910;2022-12-16T07:04:46;17.00;28.30
21171;DHT22;10743;52.160;20.910;2022-12-16T07:07:32;17.00;28.30
21171;DHT22;10743;52.160;20.910;2022-12-16T07:10:18;17.00;28.30
21171;DHT22;10743;52.160;20.910;2022-12-16T07:13:03;17.00;28.30
21171;DHT22;10743;52.160;20.910;2022-12-16T07:15:48;17.00;28.20
21171;DHT22;10743;52.160;20.910;2022-12-16T07:18:34;17.00;28.20
21171;DHT22;10743;52.160;20.910;2022-12-16T07:21:19;17.00;28.30
21171;DHT22;10743;52.160;20.910;2022-12-16T07:24:04;17.00;28.30
21171;DHT22;10743;52.160;20.910;2022-12-16T07:26:50;17.00;28.30
21171;DHT22;10743;52.160;20.910;2022-12-16T07:29:36;17.00;28.40
21171;DHT22;10743;52.160;20.910;2022-12-16T07:32:21;17.00;28.40
21171;DHT22;10743;52.160;20.910;2022-12-16T07:35:06;17.00;28.50
21171;DHT22;10743;52.160;20.910;2022-12-16T07:37:52;17.00;28.50
21171;DHT22;10743;52.160;20.910;2022-12-16T07:40:37;17.00;28.60
21171;DHT22;10743;52.160;20.910;2022-12-16T07:43:23;17.00;28.70
21171;DHT22;10743;52.160;20.910;2022-12-16T07:46:08;17.00;28.50
21171;DHT22;10743;52.160;20.910;2022-12-16T07:48:53;17.00;28.50
21171;DHT22;10743;52.160;20.910;2022-12-16T07:51:39;17.00;28.50
21171;DHT22;10743;52.160;20.910;2022-12-16T07:54:24;17.00;28.50
21171;DHT22;10743;52.160;20.910;2022-12-16T07:57:10;17.00;28.60
21171;DHT22;10743;52.160;20.910;2022-12-16T07:59:55;17.00;28.80
21171;DHT22;10743;52.160;20.910;2022-12-16T08:02:40;17.00;28.80
21171;DHT22;10743;52.160;20.910;2022-12-16T08:05:26;17.00;28.60
21171;DHT22;10743;52.160;20.910;2022-12-16T08:08:11;17.00;28.60
21171;DHT22;10743;52.160;20.910;2022-12-16T08:10:56;17.00;28.80
21171;DHT22;10743;52.160;20.910;2022-12-16T08:13:42;16.70;28.60
21171;DHT22;10743;52.160;20.910;2022-12-16T08:16:27;17.00;28.70
21171;DHT22;10743;52.160;20.910;2022-12-16T08:19:16;17.00;28.80
21171;DHT22;10743;52.160;20.910;2022-12-16T08:22:02;17.00;28.90
21171;DHT22;10743;52.160;20.910;2022-12-16T08:24:47;17.00;28.80
21171;DHT22;10743;52.160;20.910;2022-12-16T08:27:33;17.00;28.80
21171;DHT22;10743;52.160;20.910;2022-12-16T08:30:18;17.00;28.90
21171;DHT22;10743;52.160;20.910;2022-12-16T08:33:04;17.00;28.80
21171;DHT22;10743;52.160;20.910;2022-12-16T08:36:09;17.00;28.90
21171;DHT22;10743;52.160;20.910;2022-12-16T08:38:54;17.00;29.00
21171;DHT22;10743;52.160;20.910;2022-12-16T08:41:40;17.00;29.00
21171;DHT22;10743;52.160;20.910;2022-12-16T08:44:26;17.00;29.00
21171;DHT22;10743;52.160;20.910;2022-12-16T08:47:11;17.00;29.20
21171;DHT22;10743;52.160;20.910;2022-12-16T08:49:57;17.00;29.60
21171;DHT22;10743;52.160;20.910;2022-12-16T08:52:43;17.00;29.10
21171;DHT22;10743;52.160;20.910;2022-12-16T08:55:39;17.00;29.20
21171;DHT22;10743;52.160;20.910;2022-12-16T08:58:25;17.00;29.20
21171;DHT22;10743;52.160;20.910;2022-12-16T09:01:11;17.00;29.20
21171;DHT22;10743;52.160;20.910;2022-12-16T09:03:57;17.00;29.20
21171;DHT22;10743;52.160;20.910;2022-12-16T09:06:42;17.00;29.30
21171;DHT22;10743;52.160;20.910;2022-12-16T09:09:28;17.00;29.30
21171;DHT22;10743;52.160;20.910;2022-12-16T09:12:13;17.00;29.30
21171;DHT22;10743;52.160;20.910;2022-12-16T09:14:59;17.00;29.30
21171;DHT22;10743;52.160;20.910;2022-12-16T09:17:44;16.90;29.30
21171;DHT22;10743;52.160;20.910;2022-12-16T09:20:30;16.90;29.50
21171;DHT22;10743;52.160;20.910;2022-12-16T09:23:15;16.90;29.50
21171;DHT22;10743;52.160;20.910;2022-12-16T09:26:01;16.90;29.50
21171;DHT22;10743;52.160;20.910;2022-12-16T09:28:47;16.90;29.50
21171;DHT22;10743;52.160;20.910;2022-12-16T09:31:32;16.90;29.50
21171;DHT22;10743;52.160;20.910;2022-12-16T09:34:17;16.90;29.60
21171;DHT22;10743;52.160;20.910;2022-12-16T09:37:03;17.00;29.60
21171;DHT22;10743;52.160;20.910;2022-12-16T09:39:48;17.00;29.60
21171;DHT22;10743;52.160;20.910;2022-12-16T09:45:53;17.00;29.50
21171;DHT22;10743;52.160;20.910;2022-12-16T09:52:03;17.00;29.50
21171;DHT22;10743;52.160;20.910;2022-12-16T09:54:50;17.00;29.60
21171;DHT22;10743;52.160;20.910;2022-12-16T09:57:36;17.00;29.70
21171;DHT22;10743;52.160;20.910;2022-12-16T10:00:24;17.00;29.70
21171;DHT22;10743;52.160;20.910;2022-12-16T10:03:20;17.00;29.80
21171;DHT22;10743;52.160;20.910;2022-12-16T10:16:30;17.10;29.80
21171;DHT22;10743;52.160;20.910;2022-12-16T10:26:26;17.10;29.70
21171;DHT22;10743;52.160;20.910;2022-12-16T10:29:18;17.20;29.80
21171;DHT22;10743;52.160;20.910;2022-12-16T10:32:18;17.20;29.80
21171;DHT22;10743;52.160;20.910;2022-12-16T10:35:28;17.20;29.80
21171;DHT22;10743;52.160;20.910;2022-12-16T10:38:47;17.20;29.80
21171;DHT22;10743;52.160;20.910;2022-12-16T10:41:39;17.20;29.90
21171;DHT22;10743;52.160;20.910;2022-12-16T10:47:28;17.20;29.90
21171;DHT22;10743;52.160;20.910;2022-12-16T10:50:14;17.20;30.00
21171;DHT22;10743;52.160;20.910;2022-12-16T10:59:18;17.20;30.00
21171;DHT22;10743;52.160;20.910;2022-12-16T11:05:32;17.20;30.80
21171;DHT22;10743;52.160;20.910;2022-12-16T11:08:31;17.20;30.20
21171;DHT22;10743;52.160;20.910;2022-12-16T11:11:25;17.20;30.20
21171;DHT22;10743;52.160;20.910;2022-12-16T11:17:22;17.20;30.20
21171;DHT22;10743;52.160;20.910;2022-12-16T11:20:20;17.20;29.90
21171;DHT22;10743;52.160;20.910;2022-12-16T11:23:16;17.10;29.90
21171;DHT22;10743;52.160;20.910;2022-12-16T11:29:10;16.90;30.20
21171;DHT22;10743;52.160;20.910;2022-12-16T11:34:51;16.90;31.00
21171;DHT22;10743;52.160;20.910;2022-12-16T11:37:40;16.70;30.60
21171;DHT22;10743;52.160;20.910;2022-12-16T11:40:27;16.80;31.20
21171;DHT22;10743;52.160;20.910;2022-12-16T11:43:15;16.80;31.30
21171;DHT22;10743;52.160;20.910;2022-12-16T11:46:12;16.70;31.40
21171;DHT22;10743;52.160;20.910;2022-12-16T11:49:02;16.70;31.30
21171;DHT22;10743;52.160;20.910;2022-12-16T11:51:56;16.70;31.50
21171;DHT22;10743;52.160;20.910;2022-12-16T11:55:26;16.70;31.50
21171;DHT22;10743;52.160;20.910;2022-12-16T12:05:58;16.80;31.50
21171;DHT22;10743;52.160;20.910;2022-12-16T12:12:29;16.80;31.50
21171;DHT22;10743;52.160;20.910;2022-12-16T12:15:26;16.80;31.60
21171;DHT22;10743;52.160;20.910;2022-12-16T12:25:27;17.00;31.50
21171;DHT22;10743;52.160;20.910;2022-12-16T12:32:19;17.00;31.60
21171;DHT22;10743;52.160;20.910;2022-12-16T12:36:09;17.10;31.50
21171;DHT22;10743;52.160;20.910;2022-12-16T12:47:51;17.10;31.40
21171;DHT22;10743;52.160;20.910;2022-12-16T12:54:13;17.20;31.50
21171;DHT22;10743;52.160;20.910;2022-12-16T12:57:12;17.10;31.50
21171;DHT22;10743;52.160;20.910;2022-12-16T13:00:14;17.10;31.60
21171;DHT22;10743;52.160;20.910;2022-12-16T13:03:13;17.10;31.60
21171;DHT22;10743;52.160;20.910;2022-12-16T13:06:02;17.00;31.60
21171;DHT22;10743;52.160;20.910;2022-12-16T13:11:38;17.10;32.40
21171;DHT22;10743;52.160;20.910;2022-12-16T13:20:52;17.10;31.60
21171;DHT22;10743;52.160;20.910;2022-12-16T13:23:43;17.10;31.60
21171;DHT22;10743;52.160;20.910;2022-12-16T13:26:31;17.10;31.60
21171;DHT22;10743;52.160;20.910;2022-12-16T13:29:20;17.10;31.60
21171;DHT22;10743;52.160;20.910;2022-12-16T13:32:21;17.10;31.60
21171;DHT22;10743;52.160;20.910;2022-12-16T13:38:01;17.10;31.50
21171;DHT22;10743;52.160;20.910;2022-12-16T13:46:49;17.00;31.60
21171;DHT22;10743;52.160;20.910;2022-12-16T13:52:47;17.00;31.70
21171;DHT22;10743;52.160;20.910;2022-12-16T13:55:51;17.00;31.70
21171;DHT22;10743;52.160;20.910;2022-12-16T13:58:47;17.00;31.70
21171;DHT22;10743;52.160;20.910;2022-12-16T14:01:56;17.00;31.80
21171;DHT22;10743;52.160;20.910;2022-12-16T14:04:44;17.00;31.80
21171;DHT22;10743;52.160;20.910;2022-12-16T14:07:33;17.00;31.70
21171;DHT22;10743;52.160;20.910;2022-12-16T14:13:20;17.00;31.70
21171;DHT22;10743;52.160;20.910;2022-12-16T14:19:31;17.00;31.70
21171;DHT22;10743;52.160;20.910;2022-12-16T14:25:58;17.00;31.50
21171;DHT22;10743;52.160;20.910;2022-12-16T14:28:48;17.00;31.40
21171;DHT22;10743;52.160;20.910;2022-12-16T14:31:41;16.90;31.40
21171;DHT22;10743;52.160;20.910;2022-12-16T14:35:00;17.00;31.40
21171;DHT22;10743;52.160;20.910;2022-12-16T14:37:45;17.00;31.30
21171;DHT22;10743;52.160;20.910;2022-12-16T14:40:32;17.00;31.30
21171;DHT22;10743;52.160;20.910;2022-12-16T14:43:23;17.00;31.10
21171;DHT22;10743;52.160;20.910;2022-12-16T14:46:29;17.10;31.00
21171;DHT22;10743;52.160;20.910;2022-12-16T14:49:30;17.10;30.90
21171;DHT22;10743;52.160;20.910;2022-12-16T14:52:26;17.00;30.90
21171;DHT22;10743;52.160;20.910;2022-12-16T14:55:24;17.10;31.00
21171;DHT22;10743;52.160;20.910;2022-12-16T14:58:14;17.10;30.90
21171;DHT22;10743;52.160;20.910;2022-12-16T15:04:02;17.10;30.80
21171;DHT22;10743;52.160;20.910;2022-12-16T15:06:52;17.10;30.70
21171;DHT22;10743;52.160;20.910;2022-12-16T15:09:44;17.10;30.70
21171;DHT22;10743;52.160;20.910;2022-12-16T15:12:41;17.10;30.70
21171;DHT22;10743;52.160;20.910;2022-12-16T15:15:42;17.10;30.70
21171;DHT22;10743;52.160;20.910;2022-12-16T15:18:37;17.10;30.80
21171;DHT22;10743;52.160;20.910;2022-12-16T15:21:25;17.10;30.70
21171;DHT22;10743;52.160;20.910;2022-12-16T15:24:16;17.20;30.70
21171;DHT22;10743;52.160;20.910;2022-12-16T15:33:17;17.20;30.60
21171;DHT22;10743;52.160;20.910;2022-12-16T15:36:05;17.20;31.00
21171;DHT22;10743;52.160;20.910;2022-12-16T15:38:59;17.20;30.70
21171;DHT22;10743;52.160;20.910;2022-12-16T15:41:46;17.20;30.70
21171;DHT22;10743;52.160;20.910;2022-12-16T15:44:32;17.20;30.60
21171;DHT22;10743;52.160;20.910;2022-12-16T15:47:31;17.20;30.70
21171;DHT22;10743;52.160;20.910;2022-12-16T15:50:21;17.10;30.70
21171;DHT22;10743;52.160;20.910;2022-12-16T15:53:45;17.10;30.70
21171;DHT22;10743;52.160;20.910;2022-12-16T15:56:43;17.10;30.60
21171;DHT22;10743;52.160;20.910;2022-12-16T15:59:35;17.10;30.70
21171;DHT22;10743;52.160;20.910;2022-12-16T16:02:26;17.10;30.70
21171;DHT22;10743;52.160;20.910;2022-12-16T16:05:18;17.10;30.80
21171;DHT22;10743;52.160;20.910;2022-12-16T16:08:09;17.10;30.70
21171;DHT22;10743;52.160;20.910;2022-12-16T16:10:56;17.10;30.80
21171;DHT22;10743;52.160;20.910;2022-12-16T16:13:41;17.10;30.60
21171;DHT22;10743;52.160;20.910;2022-12-16T16:16:36;17.10;30.70
21171;DHT22;10743;52.160;20.910;2022-12-16T16:19:25;17.10;30.60
21171;DHT22;10743;52.160;20.910;2022-12-16T16:22:12;17.10;30.50
21171;DHT22;10743;52.160;20.910;2022-12-16T16:24:59;17.10;30.70
21171;DHT22;10743;52.160;20.910;2022-12-16T16:27:45;17.10;30.60
21171;DHT22;10743;52.160;20.910;2022-12-16T16:30:31;17.10;30.70
21171;DHT22;10743;52.160;20.910;2022-12-16T16:33:17;17.10;30.70
21171;DHT22;10743;52.160;20.910;2022-12-16T16:36:12;17.10;30.50
21171;DHT22;10743;52.160;20.910;2022-12-16T16:38:58;17.10;30.60
21171;DHT22;10743;52.160;20.910;2022-12-16T16:41:44;17.10;30.60
21171;DHT22;10743;52.160;20.910;2022-12-16T16:44:30;17.10;30.60
21171;DHT22;10743;52.160;20.910;2022-12-16T16:47:16;17.00;30.60
21171;DHT22;10743;52.160;20.910;2022-12-16T16:50:02;17.00;30.70
21171;DHT22;10743;52.160;20.910;2022-12-16T16:52:47;17.00;30.60
21171;DHT22;10743;52.160;20.910;2022-12-16T16:55:33;17.00;30.60
21171;DHT22;10743;52.160;20.910;2022-12-16T16:58:29;17.00;30.70
21171;DHT22;10743;52.160;20.910;2022-12-16T17:01:18;17.00;30.60
21171;DHT22;10743;52.160;20.910;2022-12-16T17:04:04;17.00;30.60
21171;DHT22;10743;52.160;20.910;2022-12-16T17:06:49;17.10;30.70
21171;DHT22;10743;52.160;20.910;2022-12-16T17:09:35;17.10;30.50
21171;DHT22;10743;52.160;20.910;2022-12-16T17:12:24;17.10;30.60
21171;DHT22;10743;52.160;20.910;2022-12-16T17:15:18;17.10;30.60
21171;DHT22;10743;52.160;20.910;2022-12-16T17:18:09;17.10;30.50
21171;DHT22;10743;52.160;20.910;2022-12-16T17:20:54;17.10;30.60
21171;DHT22;10743;52.160;20.910;2022-12-16T17:23:40;17.00;30.50
21171;DHT22;10743;52.160;20.910;2022-12-16T17:26:25;17.00;30.50
21171;DHT22;10743;52.160;20.910;2022-12-16T17:29:19;16.90;30.40
21171;DHT22;10743;52.160;20.910;2022-12-16T17:32:26;16.90;30.50
21171;DHT22;10743;52.160;20.910;2022-12-16T17:35:12;16.90;30.70
21171;DHT22;10743;52.160;20.910;2022-12-16T17:37:57;16.90;30.70
21171;DHT22;10743;52.160;20.910;2022-12-16T17:40:43;16.90;30.70
21171;DHT22;10743;52.160;20.910;2022-12-16T17:43:35;16.90;30.60
21171;DHT22;10743;52.160;20.910;2022-12-16T17:46:23;16.90;30.50
21171;DHT22;10743;52.160;20.910;2022-12-16T17:49:09;16.90;30.70
21171;DHT22;10743;52.160;20.910;2022-12-16T17:51:55;17.00;30.50
21171;DHT22;10743;52.160;20.910;2022-12-16T17:54:41;17.00;30.70
21171;DHT22;10743;52.160;20.910;2022-12-16T17:57:26;16.90;30.70
21171;DHT22;10743;52.160;20.910;2022-12-16T18:00:12;16.90;30.60
21171;DHT22;10743;52.160;20.910;2022-12-16T18:02:58;17.00;30.60
21171;DHT22;10743;52.160;20.910;2022-12-16T18:05:44;17.00;30.60
21171;DHT22;10743;52.160;20.910;2022-12-16T18:08:31;17.00;31.10
21171;DHT22;10743;52.160;20.910;2022-12-16T18:11:17;17.00;30.50
21171;DHT22;10743;52.160;20.910;2022-12-16T18:14:04;16.90;30.50
21171;DHT22;10743;52.160;20.910;2022-12-16T18:16:50;17.00;30.50
21171;DHT22;10743;52.160;20.910;2022-12-16T18:19:35;17.00;30.40
21171;DHT22;10743;52.160;20.910;2022-12-16T18:22:21;16.90;30.40
21171;DHT22;10743;52.160;20.910;2022-12-16T18:25:06;16.90;30.50
21171;DHT22;10743;52.160;20.910;2022-12-16T18:27:52;16.90;31.20
21171;DHT22;10743;52.160;20.910;2022-12-16T18:30:37;16.90;30.50
21171;DHT22;10743;52.160;20.910;2022-12-16T18:33:30;16.90;30.40
21171;DHT22;10743;52.160;20.910;2022-12-16T18:36:16;16.90;30.50
21171;DHT22;10743;52.160;20.910;2022-12-16T18:39:02;16.90;30.60
21171;DHT22;10743;52.160;20.910;2022-12-16T18:41:49;16.90;30.50
21171;DHT22;10743;52.160;20.910;2022-12-16T18:44:34;16.90;30.50
21171;DHT22;10743;52.160;20.910;2022-12-16T18:47:26;16.90;30.60
21171;DHT22;10743;52.160;20.910;2022-12-16T18:50:12;16.90;30.50
21171;DHT22;10743;52.160;20.910;2022-12-16T18:53:11;16.90;30.60
21171;DHT22;10743;52.160;20.910;2022-12-16T18:56:05;16.90;30.60
21171;DHT22;10743;52.160;20.910;2022-12-16T18:58:52;16.90;30.60
21171;DHT22;10743;52.160;20.910;2022-12-16T19:01:38;16.90;30.50
21171;DHT22;10743;52.160;20.910;2022-12-16T19:04:24;17.00;30.60
21171;DHT22;10743;52.160;20.910;2022-12-16T19:07:10;17.00;30.50
21171;DHT22;10743;52.160;20.910;2022-12-16T19:09:59;17.00;30.70
21171;DHT22;10743;52.160;20.910;2022-12-16T19:12:45;17.10;30.60
21171;DHT22;10743;52.160;20.910;2022-12-16T19:15:30;17.00;30.60
21171;DHT22;10743;52.160;20.910;2022-12-16T19:18:16;17.10;30.40
21171;DHT22;10743;52.160;20.910;2022-12-16T19:21:02;17.10;31.10
21171;DHT22;10743;52.160;20.910;2022-12-16T19:23:48;17.10;30.50
21171;DHT22;10743;52.160;20.910;2022-12-16T19:26:34;17.10;30.70
21171;DHT22;10743;52.160;20.910;2022-12-16T19:29:22;17.20;30.50
21171;DHT22;10743;52.160;20.910;2022-12-16T19:32:09;17.20;30.30
21171;DHT22;10743;52.160;20.910;2022-12-16T19:34:54;17.20;30.60
21171;DHT22;10743;52.160;20.910;2022-12-16T19:37:39;17.20;30.60
21171;DHT22;10743;52.160;20.910;2022-12-16T19:40:25;17.20;30.50
21171;DHT22;10743;52.160;20.910;2022-12-16T19:43:10;17.20;30.40